createdAt,value
2019-04-26T00:02:45.135Z,101047.51
2019-04-26T00:05:36.259Z,101049.03
2019-04-26T00:08:25.820Z,101056.32
2019-04-26T00:11:22.372Z,101065.98
2019-04-26T00:14:37.215Z,101065.59
2019-04-26T00:17:30.222Z,101070.73
2019-04-26T00:20:19.392Z,101059.30
2019-04-26T00:23:10.597Z,101072.05
2019-04-26T00:26:00.386Z,101078.53
2019-04-26T00:28:50.383Z,101091.14
2019-04-26T00:31:39.854Z,101098.52
2019-04-26T00:34:29.830Z,101091.11
2019-04-26T00:37:19.147Z,101090.83
2019-04-26T00:40:11.688Z,101086.59
2019-04-26T00:43:02.824Z,101077.44
2019-04-26T00:45:52.496Z,101079.75
2019-04-26T00:48:42.277Z,101073.59
2019-04-26T00:51:31.955Z,101085.52
2019-04-26T00:54:22.212Z,101104.46
2019-04-26T00:57:11.516Z,101106.38
2019-04-26T01:00:01.535Z,101107.48
2019-04-26T01:02:54.545Z,101103.16
2019-04-26T01:05:44.302Z,101088.67
2019-04-26T01:08:33.954Z,101092.87
2019-04-26T01:11:23.906Z,101098.68
2019-04-26T01:14:13.747Z,101099.34
2019-04-26T01:17:03.365Z,101101.30
2019-04-26T01:19:53.073Z,101108.94
2019-04-26T01:22:47.403Z,101092.95
2019-04-26T01:25:46.986Z,101092.58
2019-04-26T01:28:44.343Z,101098.03
2019-04-26T01:31:38.838Z,101105.66
2019-04-26T01:34:28.264Z,101105.75
2019-04-26T01:37:18.311Z,101101.73
2019-04-26T01:40:12.257Z,101104.86
2019-04-26T01:43:27.028Z,101105.84
2019-04-26T01:46:21.645Z,101101.41
2019-04-26T01:49:12.087Z,101115.75
2019-04-26T01:52:09.044Z,101115.75
2019-04-26T01:54:58.241Z,101128.77
2019-04-26T01:57:48.279Z,101133.73
2019-04-26T02:00:54.166Z,101137.75
2019-04-26T02:06:35.283Z,101146.73
2019-04-26T02:09:25.151Z,101147.30
2019-04-26T02:12:14.731Z,101141.94
2019-04-26T02:15:03.693Z,101135.69
2019-04-26T02:17:54.619Z,101128.67
2019-04-26T02:21:06.906Z,101145.16
2019-04-26T02:24:25.312Z,101144.75
2019-04-26T02:27:34.547Z,101136.71
2019-04-26T02:30:26.348Z,101135.01
2019-04-26T02:33:15.460Z,101134.60
2019-04-26T02:36:05.322Z,101133.66
2019-04-26T02:38:57.240Z,101136.43
2019-04-26T02:41:47.581Z,101139.96
2019-04-26T02:44:43.161Z,101140.53
2019-04-26T02:47:53.668Z,101139.11
2019-04-26T02:50:46.465Z,101136.96
2019-04-26T02:54:19.444Z,101134.77
2019-04-26T02:57:08.705Z,101138.30
2019-04-26T03:00:06.824Z,101136.11
2019-04-26T03:03:05.057Z,101125.48
2019-04-26T03:05:54.934Z,101124.22
2019-04-26T03:08:44.529Z,101114.84
2019-04-26T03:11:48.413Z,101109.94
2019-04-26T03:14:44.563Z,101106.89
2019-04-26T03:17:53.547Z,101097.52
2019-04-26T03:20:45.316Z,101094.44
2019-04-26T03:23:58.275Z,101097.61
2019-04-26T03:27:19.448Z,101105.23
2019-04-26T03:30:21.029Z,101113.73
2019-04-26T03:33:55.435Z,101126.27
2019-04-26T03:37:49.461Z,101132.95
2019-04-26T03:41:03.220Z,101136.66
2019-04-26T03:44:13.458Z,101124.69
2019-04-26T03:47:03.653Z,101121.56
2019-04-26T03:50:13.499Z,101126.97
2019-04-26T03:53:36.298Z,101138.65
2019-04-26T03:57:01.014Z,101144.00
2019-04-26T04:00:22.564Z,101151.63
2019-04-26T04:03:37.479Z,101154.31
2019-04-26T04:06:30.210Z,101171.80
2019-04-26T04:09:19.892Z,101191.48
2019-04-26T04:12:24.345Z,101184.87
2019-04-26T04:15:28.492Z,101178.17
2019-04-26T04:18:22.819Z,101171.16
2019-04-26T04:21:33.181Z,101165.34
2019-04-26T04:24:39.896Z,101150.70
2019-04-26T04:27:40.039Z,101145.34
2019-04-26T04:31:03.055Z,101162.43
2019-04-26T04:34:42.094Z,101168.23
2019-04-26T04:37:54.466Z,101183.84
2019-04-26T04:41:15.212Z,101204.42
2019-04-26T04:44:16.928Z,101211.12
2019-04-26T04:47:31.326Z,101221.91
2019-04-26T04:50:37.144Z,101230.83
2019-04-26T04:53:51.764Z,101219.23
2019-04-26T04:57:19.337Z,101214.89
2019-04-26T05:00:45.104Z,101190.80
2019-04-26T05:04:01.071Z,101190.80
2019-04-26T05:07:35.889Z,101181.06
2019-04-26T05:10:36.003Z,101182.77
2019-04-26T05:13:54.787Z,101182.84
2019-04-26T05:17:17.316Z,101194.81
2019-04-26T05:20:34.724Z,101205.52
2019-04-26T05:24:01.048Z,101183.73
2019-04-26T05:27:37.093Z,101185.52
2019-04-26T05:31:08.408Z,101182.39
2019-04-26T05:34:29.449Z,101178.38
2019-04-26T05:37:44.835Z,101193.55
2019-04-26T05:41:19.855Z,101203.33
2019-04-26T05:44:24.758Z,101200.65
2019-04-26T05:47:35.282Z,101216.23
2019-04-26T05:51:36.316Z,101226.09
2019-04-26T05:54:49.792Z,101234.97
2019-04-26T05:58:13.605Z,101238.05
2019-04-26T06:01:53.324Z,101235.38
2019-04-26T06:05:54.390Z,101237.52
2019-04-26T06:09:30.533Z,101229.87
2019-04-26T06:12:35.387Z,101222.72
2019-04-26T06:15:42.747Z,101221.25
2019-04-26T06:18:57.258Z,101231.41
2019-04-26T06:22:27.308Z,101244.27
2019-04-26T06:25:33.313Z,101261.11
2019-04-26T06:28:52.924Z,101260.09
2019-04-26T06:31:55.901Z,101262.69
2019-04-26T06:35:21.906Z,101259.40
2019-04-26T06:39:19.681Z,101259.24
2019-04-26T06:43:28.146Z,101249.14
2019-04-26T06:46:37.387Z,101250.64
2019-04-26T06:50:08.578Z,101265.54
2019-04-26T06:53:30.528Z,101273.37
2019-04-26T06:57:12.675Z,101280.68
2019-04-26T07:00:08.761Z,101299.15
2019-04-26T07:03:27.641Z,101323.48
2019-04-26T07:06:17.200Z,101328.14
2019-04-26T07:09:09.862Z,101321.69
2019-04-26T07:12:53.291Z,101324.52
2019-04-26T07:16:23.018Z,101323.95
2019-04-26T07:19:16.907Z,101329.40
2019-04-26T07:22:35.433Z,101327.36
2019-04-26T07:26:29.117Z,101328.77
2019-04-26T07:30:22.804Z,101338.47
2019-04-26T07:34:11.464Z,101339.17
2019-04-26T07:38:02.675Z,101348.45
2019-04-26T07:41:28.856Z,101348.52
2019-04-26T07:45:10.644Z,101344.64
2019-04-26T07:49:00.309Z,101339.94
2019-04-26T07:52:44.141Z,101324.91
2019-04-26T07:56:45.078Z,101337.13
2019-04-26T08:00:12.946Z,101347.44
2019-04-26T08:03:23.757Z,101383.42
2019-04-26T08:06:31.196Z,101382.18
2019-04-26T08:09:26.925Z,101381.02
2019-04-26T08:12:14.143Z,101383.88
2019-04-26T08:15:17.990Z,101383.34
2019-04-26T08:18:22.032Z,101378.80
2019-04-26T08:21:38.074Z,101362.31
2019-04-26T08:24:28.248Z,101369.64
2019-04-26T08:27:24.015Z,101379.63
2019-04-26T08:30:17.025Z,101381.38
2019-04-26T08:33:07.540Z,101393.20
2019-04-26T08:35:59.504Z,101393.10
2019-04-26T08:38:52.509Z,101395.55
2019-04-26T08:41:42.132Z,101397.20
2019-04-26T08:44:51.090Z,101409.05
2019-04-26T08:47:53.612Z,101423.97
2019-04-26T08:50:47.059Z,101428.12
2019-04-26T08:53:38.304Z,101428.70
2019-04-26T08:56:32.441Z,101424.69
2019-04-26T08:59:26.791Z,101415.31
2019-04-26T09:02:37.411Z,101418.52
2019-04-26T09:05:54.461Z,101416.05
2019-04-26T09:08:45.109Z,101405.09
2019-04-26T09:11:35.032Z,101387.04
2019-04-26T09:14:25.769Z,101387.04
2019-04-26T09:17:18.286Z,101385.69
2019-04-26T09:20:09.750Z,101386.47
2019-04-26T09:23:39.495Z,101389.95
2019-04-26T09:26:27.816Z,101387.92
2019-04-26T09:29:22.703Z,101398.18
2019-04-26T09:32:14.876Z,101401.83
2019-04-26T09:35:04.432Z,101400.91
2019-04-26T09:37:55.597Z,101396.80
2019-04-26T09:40:45.092Z,101400.33
2019-04-26T09:43:44.056Z,101400.58
2019-04-26T09:47:04.699Z,101406.41
2019-04-26T09:50:15.255Z,101412.37
2019-04-26T09:53:03.235Z,101407.92
2019-04-26T09:55:52.369Z,101415.63
2019-04-26T09:58:41.860Z,101415.69
2019-04-26T10:01:32.635Z,101415.87
2019-04-26T10:04:22.020Z,101423.64
2019-04-26T10:07:12.254Z,101418.02
2019-04-26T10:10:02.089Z,101415.11
2019-04-26T10:13:01.708Z,101421.17
2019-04-26T10:15:58.186Z,101422.42
2019-04-26T10:18:50.283Z,101409.20
2019-04-26T10:21:40.034Z,101410.22
2019-04-26T10:24:29.226Z,101412.48
2019-04-26T10:27:18.734Z,101407.91
2019-04-26T10:30:10.103Z,101407.23
2019-04-26T10:33:02.237Z,101406.27
2019-04-26T10:35:52.448Z,101396.79
2019-04-26T10:38:41.745Z,101403.33
2019-04-26T10:41:31.522Z,101402.06
2019-04-26T10:44:21.084Z,101408.89
2019-04-26T10:47:11.395Z,101409.47
2019-04-26T10:50:00.480Z,101405.09
2019-04-26T10:53:00.066Z,101400.09
2019-04-26T10:56:24.288Z,101399.59
2019-04-26T10:59:22.788Z,101415.34
2019-04-26T11:02:15.668Z,101422.17
2019-04-26T11:05:05.689Z,101428.38
2019-04-26T11:07:55.143Z,101418.03
2019-04-26T11:10:48.836Z,101425.31
2019-04-26T11:13:36.503Z,101424.45
2019-04-26T11:16:26.415Z,101418.78
2019-04-26T11:19:16.155Z,101418.69
2019-04-26T11:22:05.585Z,101419.53
2019-04-26T11:24:55.048Z,101418.18
2019-04-26T11:27:48.534Z,101427.42
2019-04-26T11:30:35.946Z,101421.03
2019-04-26T11:33:25.119Z,101421.51
2019-04-26T11:36:14.457Z,101425.48
2019-04-26T11:39:07.469Z,101418.42
2019-04-26T11:41:57.416Z,101412.48
2019-04-26T11:44:47.212Z,101421.78
2019-04-26T11:47:37.075Z,101422.72
2019-04-26T11:50:27.246Z,101410.75
2019-04-26T11:53:16.507Z,101423.09
2019-04-26T11:56:05.833Z,101420.77
2019-04-26T11:58:56.912Z,101421.44
2019-04-26T12:01:46.179Z,101426.08
2019-04-26T12:04:49.730Z,101427.53
2019-04-26T12:07:44.325Z,101428.38
2019-04-26T12:10:33.217Z,101427.30
2019-04-26T12:13:24.914Z,101427.34
2019-04-26T12:16:14.578Z,101428.09
2019-04-26T12:19:05.629Z,101433.72
2019-04-26T12:21:54.721Z,101428.28
2019-04-26T12:24:43.577Z,101430.19
2019-04-26T12:27:32.382Z,101430.73
2019-04-26T12:30:26.376Z,101428.52
2019-04-26T12:33:12.536Z,101430.91
2019-04-26T12:36:02.523Z,101427.55
2019-04-26T12:38:58.269Z,101428.62
2019-04-26T12:41:48.653Z,101435.16
2019-04-26T12:47:45.838Z,101447.89
2019-04-26T12:50:37.706Z,101441.13
2019-04-26T12:53:31.487Z,101439.94
2019-04-26T12:56:17.944Z,101437.77
2019-04-26T12:59:06.830Z,101438.91
2019-04-26T13:02:05.611Z,101441.92
2019-04-26T13:04:47.394Z,101451.21
2019-04-26T13:07:39.078Z,101456.28
2019-04-26T13:10:52.985Z,101459.02
2019-04-26T13:13:55.966Z,101462.38
2019-04-26T13:16:51.503Z,101458.65
2019-04-26T13:19:40.715Z,101461.34
2019-04-26T13:22:32.033Z,101449.72
2019-04-26T13:25:26.586Z,101454.86
2019-04-26T13:28:15.670Z,101454.70
2019-04-26T13:31:04.264Z,101457.66
2019-04-26T13:33:53.611Z,101464.45
2019-04-26T13:36:42.896Z,101465.70
2019-04-26T13:39:31.759Z,101475.85
2019-04-26T13:42:21.130Z,101474.38
2019-04-26T13:45:33.823Z,101463.41
2019-04-26T13:48:39.226Z,101480.19
2019-04-26T13:51:30.627Z,101476.75
2019-04-26T13:54:21.209Z,101471.45
2019-04-26T13:57:11.285Z,101464.50
2019-04-26T14:00:02.488Z,101469.30
2019-04-26T14:02:51.083Z,101469.42
2019-04-26T14:05:39.855Z,101471.67
2019-04-26T14:08:30.977Z,101468.82
2019-04-26T14:11:27.892Z,101476.44
2019-04-26T14:14:12.053Z,101465.70
2019-04-26T14:17:01.724Z,101461.36
2019-04-26T14:19:51.157Z,101462.38
2019-04-26T14:22:46.912Z,101465.09
2019-04-26T14:26:10.546Z,101455.90
2019-04-26T14:28:59.729Z,101456.92
2019-04-26T14:31:51.541Z,101456.21
2019-04-26T14:34:41.668Z,101447.84
2019-04-26T14:37:31.703Z,101451.92
2019-04-26T14:40:21.483Z,101447.90
2019-04-26T14:43:12.439Z,101444.66
2019-04-26T14:46:03.943Z,101440.44
2019-04-26T14:49:01.367Z,101442.64
2019-04-26T14:51:46.961Z,101441.94
2019-04-26T14:54:34.738Z,101442.09
2019-04-26T14:57:30.872Z,101439.27
2019-04-26T15:00:16.703Z,101436.28
2019-04-26T15:03:31.216Z,101439.28
2019-04-26T15:06:23.829Z,101446.30
2019-04-26T15:09:19.774Z,101446.61
2019-04-26T15:12:07.716Z,101449.10
2019-04-26T15:14:56.739Z,101442.05
2019-04-26T15:17:46.256Z,101444.44
2019-04-26T15:20:36.102Z,101449.80
2019-04-26T15:23:26.619Z,101452.69
2019-04-26T15:26:18.523Z,101451.44
2019-04-26T15:29:07.147Z,101448.24
2019-04-26T15:31:57.339Z,101448.78
2019-04-26T15:34:47.196Z,101450.72
2019-04-26T15:37:36.601Z,101442.21
2019-04-26T15:40:35.288Z,101437.21
2019-04-26T15:43:34.730Z,101437.95
2019-04-26T15:46:33.631Z,101438.53
2019-04-26T15:49:36.510Z,101436.13
2019-04-26T15:52:25.044Z,101435.53
2019-04-26T15:55:14.712Z,101440.41
2019-04-26T15:58:08.338Z,101448.36
2019-04-26T16:00:58.838Z,101449.65
2019-04-26T16:03:48.267Z,101445.10
2019-04-26T16:06:41.913Z,101448.27
2019-04-26T16:09:30.076Z,101446.31
2019-04-26T16:12:20.328Z,101435.44
2019-04-26T16:15:11.478Z,101436.87
2019-04-26T16:18:03.919Z,101441.33
2019-04-26T16:20:53.335Z,101444.25
2019-04-26T16:23:50.970Z,101444.55
2019-04-26T16:26:34.152Z,101438.70
2019-04-26T16:29:58.279Z,101441.59
2019-04-26T16:33:10.982Z,101439.21
2019-04-26T16:36:02.563Z,101439.67
2019-04-26T16:38:56.102Z,101442.56
2019-04-26T16:41:42.196Z,101449.09
2019-04-26T16:44:33.473Z,101446.31
2019-04-26T16:47:23.381Z,101448.81
2019-04-26T16:50:21.318Z,101451.30
2019-04-26T16:53:04.984Z,101464.42
2019-04-26T16:55:54.853Z,101457.83
2019-04-26T16:58:45.405Z,101462.69
2019-04-26T17:01:38.112Z,101466.35
2019-04-26T17:04:31.987Z,101467.09
2019-04-26T17:07:22.287Z,101459.81
2019-04-26T17:10:09.258Z,101462.36
2019-04-26T17:12:58.670Z,101459.23
2019-04-26T17:15:51.973Z,101456.05
2019-04-26T17:18:38.740Z,101458.71
2019-04-26T17:21:29.621Z,101457.63
2019-04-26T17:24:43.840Z,101455.64
2019-04-26T17:27:33.083Z,101449.94
2019-04-26T17:30:25.233Z,101456.62
2019-04-26T17:33:14.192Z,101466.23
2019-04-26T17:36:03.033Z,101459.53
2019-04-26T17:38:51.784Z,101460.47
2019-04-26T17:41:45.091Z,101460.78
2019-04-26T17:44:34.179Z,101467.66
2019-04-26T17:47:23.797Z,101467.47
2019-04-26T17:50:12.748Z,101461.11
2019-04-26T17:53:02.247Z,101461.41
2019-04-26T17:55:54.832Z,101452.80
2019-04-26T17:58:51.188Z,101455.10
2019-04-26T18:01:42.941Z,101458.58
2019-04-26T18:04:34.377Z,101460.73
2019-04-26T18:07:39.360Z,101462.00
2019-04-26T18:10:10.267Z,101462.28
2019-04-26T18:12:57.777Z,101467.07
2019-04-26T18:15:52.751Z,101471.92
2019-04-26T18:19:02.461Z,101470.33
2019-04-26T18:22:19.379Z,101466.89
2019-04-26T18:25:12.563Z,101477.51
2019-04-26T18:28:00.563Z,101470.61
2019-04-26T18:30:56.951Z,101477.14
2019-04-26T18:33:46.531Z,101475.53
2019-04-26T18:36:35.885Z,101481.95
2019-04-26T18:39:26.510Z,101474.54
2019-04-26T18:42:16.467Z,101477.34
2019-04-26T18:45:07.216Z,101481.02
2019-04-26T18:48:01.132Z,101482.02
2019-04-26T18:50:47.830Z,101481.24
2019-04-26T18:54:05.085Z,101486.42
2019-04-26T18:56:58.767Z,101480.61
2019-04-26T18:59:51.127Z,101479.59
2019-04-26T19:02:39.579Z,101482.76
2019-04-26T19:05:30.190Z,101474.86
2019-04-26T19:08:26.571Z,101479.98
2019-04-26T19:11:11.843Z,101474.31
2019-04-26T19:14:21.893Z,101482.15
2019-04-26T19:17:22.053Z,101474.20
2019-04-26T19:20:32.311Z,101476.23
2019-04-26T19:23:28.603Z,101462.91
2019-04-26T19:26:13.820Z,101464.57
2019-04-26T19:29:15.479Z,101472.38
2019-04-26T19:31:56.681Z,101472.96
2019-04-26T19:34:46.155Z,101479.88
2019-04-26T19:37:36.974Z,101481.91
2019-04-26T19:40:47.774Z,101481.21
2019-04-26T19:43:39.143Z,101478.69
2019-04-26T19:46:38.639Z,101481.75
2019-04-26T19:49:54.373Z,101482.78
2019-04-26T19:53:10.240Z,101476.69
2019-04-26T19:56:24.817Z,101488.73
2019-04-26T19:59:12.325Z,101486.30
2019-04-26T20:02:09.375Z,101487.88
2019-04-26T20:05:02.432Z,101488.03
2019-04-26T20:07:53.669Z,101491.37
2019-04-26T20:10:45.879Z,101484.77
2019-04-26T20:13:36.157Z,101491.17
2019-04-26T20:16:29.997Z,101491.66
2019-04-26T20:19:33.731Z,101489.07
2019-04-26T20:22:12.171Z,101489.70
2019-04-26T20:25:03.861Z,101489.72
2019-04-26T20:27:59.657Z,101484.92
2019-04-26T20:30:57.913Z,101482.23
2019-04-26T20:33:47.870Z,101483.61
2019-04-26T20:36:41.542Z,101472.84
2019-04-26T20:39:31.986Z,101475.94
2019-04-26T20:42:23.317Z,101465.63
2019-04-26T20:45:16.990Z,101471.03
2019-04-26T20:48:07.147Z,101470.55
2019-04-26T20:50:56.633Z,101472.41
2019-04-26T20:53:46.112Z,101474.15
2019-04-26T20:56:35.319Z,101465.19
2019-04-26T20:59:24.806Z,101467.41
2019-04-26T21:02:16.264Z,101468.63
2019-04-26T21:05:10.297Z,101467.64
2019-04-26T21:08:00.051Z,101462.55
2019-04-26T21:10:49.227Z,101457.16
2019-04-26T21:13:41.461Z,101460.60
2019-04-26T21:16:32.274Z,101457.70
2019-04-26T21:19:21.616Z,101465.22
2019-04-26T21:22:10.900Z,101468.20
2019-04-26T21:25:06.687Z,101461.83
2019-04-26T21:28:15.196Z,101462.97
2019-04-26T21:31:29.239Z,101459.70
2019-04-26T21:34:39.834Z,101460.55
2019-04-26T21:37:39.904Z,101457.73
2019-04-26T21:40:43.758Z,101458.88
2019-04-26T21:43:36.970Z,101444.45
2019-04-26T21:46:23.972Z,101448.28
2019-04-26T21:49:20.309Z,101440.95
2019-04-26T21:52:04.927Z,101438.23
2019-04-26T21:54:58.187Z,101444.38
2019-04-26T21:57:51.532Z,101439.19
2019-04-26T22:00:57.693Z,101435.88
2019-04-26T22:03:53.606Z,101432.49
2019-04-26T22:06:38.141Z,101431.42
2019-04-26T22:09:39.626Z,101423.59
2019-04-26T22:12:31.293Z,101421.19
2019-04-26T22:15:37.586Z,101420.57
2019-04-26T22:18:33.060Z,101424.20
2019-04-26T22:21:30.278Z,101418.61
2019-04-26T22:24:30.539Z,101419.73
2019-04-26T22:27:21.908Z,101414.45
2019-04-26T22:30:17.589Z,101412.44
2019-04-26T22:33:06.936Z,101410.88
2019-04-26T22:35:58.543Z,101415.94
2019-04-26T22:38:49.172Z,101409.40
2019-04-26T22:41:38.511Z,101397.48
2019-04-26T22:44:38.785Z,101393.14
2019-04-26T22:47:50.543Z,101390.23
2019-04-26T22:50:40.548Z,101387.24
2019-04-26T22:53:30.531Z,101384.73
2019-04-26T22:56:23.229Z,101383.17
2019-04-26T22:59:13.905Z,101381.16
2019-04-26T23:02:06.132Z,101372.47
2019-04-26T23:05:00.643Z,101383.30
2019-04-26T23:07:49.038Z,101374.17
2019-04-26T23:10:45.608Z,101371.26
2019-04-26T23:13:44.783Z,101372.37
2019-04-26T23:17:04.155Z,101377.04
2019-04-26T23:19:49.380Z,101373.67
2019-04-26T23:22:39.039Z,101366.33
2019-04-26T23:25:31.285Z,101361.94
2019-04-26T23:28:20.021Z,101358.63
2019-04-26T23:31:10.101Z,101357.46
2019-04-26T23:33:59.632Z,101355.41
2019-04-26T23:36:50.294Z,101351.15
2019-04-26T23:39:44.409Z,101353.06
2019-04-26T23:42:30.148Z,101361.38
2019-04-26T23:45:23.116Z,101357.98
2019-04-26T23:48:13.463Z,101359.48
2019-04-26T23:51:08.394Z,101358.80
2019-04-26T23:53:57.782Z,101354.52
2019-04-26T23:56:47.077Z,101356.00
2019-04-26T23:59:36.569Z,101345.92
